sensor_id;sensor_type;location;lat;lon;timestamp;P1;durP1;ratioP1;P2;durP2;ratioP2
25111;SDS011;13092;51.996;4.458;2023-02-28T00:01:41;24.00;;;22.40;;
25111;SDS011;13092;51.996;4.458;2023-02-28T00:04:10;24.70;;;22.77;;
25111;SDS011;13092;51.996;4.458;2023-02-28T00:06:38;24.70;;;23.10;;
25111;SDS011;13092;51.996;4.458;2023-02-28T00:09:08;24.47;;;22.87;;
25111;SDS011;13092;51.996;4.458;2023-02-28T00:11:36;24.77;;;23.17;;
25111;SDS011;13092;51.996;4.458;2023-02-28T00:14:04;24.80;;;23.10;;
25111;SDS011;13092;51.996;4.458;2023-02-28T00:16:32;25.67;;;23.97;;
25111;SDS011;13092;51.996;4.458;2023-02-28T00:19:01;27.33;;;25.50;;
25111;SDS011;13092;51.996;4.458;2023-02-28T00:21:29;27.90;;;25.90;;
25111;SDS011;13092;51.996;4.458;2023-02-28T00:23:57;28.27;;;26.17;;
25111;SDS011;13092;51.996;4.458;2023-02-28T00:26:27;29.43;;;27.53;;
25111;SDS011;13092;51.996;4.458;2023-02-28T00:28:55;30.23;;;28.07;;
25111;SDS011;13092;51.996;4.458;2023-02-28T00:31:23;30.47;;;28.17;;
25111;SDS011;13092;51.996;4.458;2023-02-28T00:33:52;30.57;;;28.27;;
25111;SDS011;13092;51.996;4.458;2023-02-28T00:36:20;30.97;;;28.70;;
25111;SDS011;13092;51.996;4.458;2023-02-28T00:38:48;31.10;;;28.67;;
25111;SDS011;13092;51.996;4.458;2023-02-28T00:41:16;31.10;;;28.80;;
25111;SDS011;13092;51.996;4.458;2023-02-28T00:43:45;30.83;;;28.77;;
25111;SDS011;13092;51.996;4.458;2023-02-28T00:46:13;30.20;;;28.17;;
25111;SDS011;13092;51.996;4.458;2023-02-28T00:48:41;29.93;;;27.73;;
25111;SDS011;13092;51.996;4.458;2023-02-28T00:51:10;30.03;;;27.97;;
25111;SDS011;13092;51.996;4.458;2023-02-28T00:53:38;30.20;;;28.20;;
25111;SDS011;13092;51.996;4.458;2023-02-28T00:56:06;30.53;;;28.33;;
25111;SDS011;13092;51.996;4.458;2023-02-28T00:58:34;29.43;;;27.53;;
25111;SDS011;13092;51.996;4.458;2023-02-28T01:01:07;30.20;;;28.10;;
25111;SDS011;13092;51.996;4.458;2023-02-28T01:03:35;30.00;;;28.07;;
25111;SDS011;13092;51.996;4.458;2023-02-28T01:06:04;29.63;;;27.63;;
25111;SDS011;13092;51.996;4.458;2023-02-28T01:08:33;29.53;;;27.63;;
25111;SDS011;13092;51.996;4.458;2023-02-28T01:11:06;30.63;;;28.30;;
25111;SDS011;13092;51.996;4.458;2023-02-28T01:13:35;29.07;;;27.13;;
25111;SDS011;13092;51.996;4.458;2023-02-28T01:16:04;29.13;;;27.03;;
25111;SDS011;13092;51.996;4.458;2023-02-28T01:18:34;29.23;;;27.13;;
25111;SDS011;13092;51.996;4.458;2023-02-28T01:21:04;30.37;;;28.13;;
25111;SDS011;13092;51.996;4.458;2023-02-28T01:23:32;28.87;;;26.97;;
25111;SDS011;13092;51.996;4.458;2023-02-28T01:26:03;28.10;;;26.30;;
25111;SDS011;13092;51.996;4.458;2023-02-28T01:28:32;30.07;;;27.97;;
25111;SDS011;13092;51.996;4.458;2023-02-28T01:31:01;29.00;;;27.10;;
25111;SDS011;13092;51.996;4.458;2023-02-28T01:33:29;28.83;;;26.83;;
25111;SDS011;13092;51.996;4.458;2023-02-28T01:36:00;29.67;;;27.57;;
25111;SDS011;13092;51.996;4.458;2023-02-28T01:38:28;29.77;;;27.67;;
25111;SDS011;13092;51.996;4.458;2023-02-28T01:40:57;31.93;;;29.17;;
25111;SDS011;13092;51.996;4.458;2023-02-28T01:43:26;29.83;;;27.80;;
25111;SDS011;13092;51.996;4.458;2023-02-28T01:45:56;30.93;;;28.77;;
25111;SDS011;13092;51.996;4.458;2023-02-28T01:48:26;30.20;;;28.20;;
25111;SDS011;13092;51.996;4.458;2023-02-28T01:51:01;31.00;;;28.43;;
25111;SDS011;13092;51.996;4.458;2023-02-28T01:53:33;30.43;;;28.30;;
25111;SDS011;13092;51.996;4.458;2023-02-28T01:56:05;32.03;;;29.30;;
25111;SDS011;13092;51.996;4.458;2023-02-28T01:58:35;31.50;;;29.10;;
25111;SDS011;13092;51.996;4.458;2023-02-28T02:01:04;30.67;;;28.47;;
25111;SDS011;13092;51.996;4.458;2023-02-28T02:03:32;31.23;;;28.93;;
25111;SDS011;13092;51.996;4.458;2023-02-28T02:06:04;31.50;;;29.17;;
25111;SDS011;13092;51.996;4.458;2023-02-28T02:08:32;31.10;;;28.97;;
25111;SDS011;13092;51.996;4.458;2023-02-28T02:11:02;32.20;;;29.90;;
25111;SDS011;13092;51.996;4.458;2023-02-28T02:13:37;32.03;;;29.83;;
25111;SDS011;13092;51.996;4.458;2023-02-28T02:16:28;32.23;;;30.03;;
25111;SDS011;13092;51.996;4.458;2023-02-28T02:19:14;33.37;;;30.97;;
25111;SDS011;13092;51.996;4.458;2023-02-28T02:25:04;33.80;;;31.07;;
25111;SDS011;13092;51.996;4.458;2023-02-28T02:27:56;33.37;;;30.77;;
25111;SDS011;13092;51.996;4.458;2023-02-28T02:37:03;33.87;;;31.17;;
25111;SDS011;13092;51.996;4.458;2023-02-28T02:39:42;33.60;;;31.10;;
25111;SDS011;13092;51.996;4.458;2023-02-28T02:42:16;34.13;;;31.43;;
25111;SDS011;13092;51.996;4.458;2023-02-28T02:44:52;35.20;;;32.33;;
25111;SDS011;13092;51.996;4.458;2023-02-28T02:47:26;34.77;;;31.97;;
25111;SDS011;13092;51.996;4.458;2023-02-28T02:50:01;34.87;;;32.20;;
25111;SDS011;13092;51.996;4.458;2023-02-28T02:52:34;35.00;;;32.27;;
25111;SDS011;13092;51.996;4.458;2023-02-28T02:55:07;35.20;;;32.00;;
25111;SDS011;13092;51.996;4.458;2023-02-28T02:57:40;34.33;;;31.40;;
25111;SDS011;13092;51.996;4.458;2023-02-28T03:00:13;35.33;;;32.43;;
25111;SDS011;13092;51.996;4.458;2023-02-28T03:02:44;35.23;;;32.33;;
25111;SDS011;13092;51.996;4.458;2023-02-28T03:05:17;33.70;;;31.07;;
25111;SDS011;13092;51.996;4.458;2023-02-28T03:07:47;34.43;;;31.63;;
25111;SDS011;13092;51.996;4.458;2023-02-28T03:10:26;33.87;;;31.17;;
25111;SDS011;13092;51.996;4.458;2023-02-28T03:16:11;33.30;;;30.80;;
25111;SDS011;13092;51.996;4.458;2023-02-28T03:19:03;34.00;;;31.17;;
25111;SDS011;13092;51.996;4.458;2023-02-28T03:21:45;33.87;;;31.03;;
25111;SDS011;13092;51.996;4.458;2023-02-28T03:24:22;34.30;;;31.50;;
25111;SDS011;13092;51.996;4.458;2023-02-28T03:26:56;33.07;;;30.37;;
25111;SDS011;13092;51.996;4.458;2023-02-28T03:29:33;33.80;;;31.10;;
25111;SDS011;13092;51.996;4.458;2023-02-28T03:32:05;34.30;;;31.70;;
25111;SDS011;13092;51.996;4.458;2023-02-28T03:34:50;34.03;;;31.23;;
25111;SDS011;13092;51.996;4.458;2023-02-28T03:37:30;34.07;;;31.37;;
25111;SDS011;13092;51.996;4.458;2023-02-28T03:40:03;34.03;;;31.23;;
25111;SDS011;13092;51.996;4.458;2023-02-28T03:42:39;34.50;;;31.40;;
25111;SDS011;13092;51.996;4.458;2023-02-28T03:45:11;35.17;;;32.07;;
25111;SDS011;13092;51.996;4.458;2023-02-28T03:47:46;34.07;;;31.37;;
25111;SDS011;13092;51.996;4.458;2023-02-28T03:50:20;34.57;;;31.43;;
25111;SDS011;13092;51.996;4.458;2023-02-28T03:52:55;34.17;;;31.43;;
25111;SDS011;13092;51.996;4.458;2023-02-28T03:55:32;34.93;;;31.97;;
25111;SDS011;13092;51.996;4.458;2023-02-28T03:58:05;34.97;;;31.97;;
25111;SDS011;13092;51.996;4.458;2023-02-28T04:00:42;35.67;;;32.67;;
25111;SDS011;13092;51.996;4.458;2023-02-28T04:03:14;35.30;;;32.37;;
25111;SDS011;13092;51.996;4.458;2023-02-28T04:05:53;36.23;;;33.07;;
25111;SDS011;13092;51.996;4.458;2023-02-28T04:08:26;36.10;;;33.17;;
25111;SDS011;13092;51.996;4.458;2023-02-28T04:10:56;37.80;;;34.07;;
25111;SDS011;13092;51.996;4.458;2023-02-28T04:13:29;36.10;;;33.10;;
25111;SDS011;13092;51.996;4.458;2023-02-28T04:15:58;36.13;;;33.13;;
25111;SDS011;13092;51.996;4.458;2023-02-28T04:18:27;35.57;;;32.60;;
25111;SDS011;13092;51.996;4.458;2023-02-28T04:20:59;35.00;;;32.20;;
25111;SDS011;13092;51.996;4.458;2023-02-28T04:23:29;34.73;;;31.63;;
25111;SDS011;13092;51.996;4.458;2023-02-28T04:26:01;35.73;;;32.73;;
25111;SDS011;13092;51.996;4.458;2023-02-28T04:28:32;36.33;;;33.23;;
25111;SDS011;13092;51.996;4.458;2023-02-28T04:31:02;35.63;;;32.63;;
25111;SDS011;13092;51.996;4.458;2023-02-28T04:33:32;36.03;;;32.93;;
25111;SDS011;13092;51.996;4.458;2023-02-28T04:36:04;36.43;;;33.33;;
25111;SDS011;13092;51.996;4.458;2023-02-28T04:38:37;35.83;;;32.83;;
25111;SDS011;13092;51.996;4.458;2023-02-28T04:41:06;35.77;;;32.70;;
25111;SDS011;13092;51.996;4.458;2023-02-28T04:43:34;35.13;;;32.23;;
25111;SDS011;13092;51.996;4.458;2023-02-28T04:46:04;36.13;;;33.03;;
25111;SDS011;13092;51.996;4.458;2023-02-28T04:48:33;34.73;;;31.63;;
25111;SDS011;13092;51.996;4.458;2023-02-28T04:51:04;35.67;;;32.77;;
25111;SDS011;13092;51.996;4.458;2023-02-28T04:53:36;35.23;;;32.20;;
25111;SDS011;13092;51.996;4.458;2023-02-28T04:56:05;34.20;;;31.20;;
25111;SDS011;13092;51.996;4.458;2023-02-28T04:58:34;34.93;;;32.23;;
25111;SDS011;13092;51.996;4.458;2023-02-28T05:01:03;34.67;;;31.87;;
25111;SDS011;13092;51.996;4.458;2023-02-28T05:03:39;34.23;;;31.43;;
25111;SDS011;13092;51.996;4.458;2023-02-28T05:06:07;35.07;;;32.10;;
25111;SDS011;13092;51.996;4.458;2023-02-28T05:08:37;34.00;;;31.33;;
25111;SDS011;13092;51.996;4.458;2023-02-28T05:11:08;34.43;;;31.53;;
25111;SDS011;13092;51.996;4.458;2023-02-28T05:13:43;34.23;;;31.50;;
25111;SDS011;13092;51.996;4.458;2023-02-28T05:16:11;35.57;;;32.43;;
25111;SDS011;13092;51.996;4.458;2023-02-28T05:18:39;34.93;;;32.13;;
25111;SDS011;13092;51.996;4.458;2023-02-28T05:21:17;35.10;;;32.30;;
25111;SDS011;13092;51.996;4.458;2023-02-28T05:23:53;35.07;;;32.17;;
25111;SDS011;13092;51.996;4.458;2023-02-28T05:26:22;34.23;;;31.60;;
25111;SDS011;13092;51.996;4.458;2023-02-28T05:28:50;34.50;;;31.80;;
25111;SDS011;13092;51.996;4.458;2023-02-28T05:31:19;34.97;;;32.07;;
25111;SDS011;13092;51.996;4.458;2023-02-28T05:33:47;34.87;;;32.03;;
25111;SDS011;13092;51.996;4.458;2023-02-28T05:36:15;34.57;;;31.77;;
25111;SDS011;13092;51.996;4.458;2023-02-28T05:38:45;34.07;;;31.37;;
25111;SDS011;13092;51.996;4.458;2023-02-28T05:41:16;34.63;;;31.70;;
25111;SDS011;13092;51.996;4.458;2023-02-28T05:43:45;33.63;;;31.10;;
25111;SDS011;13092;51.996;4.458;2023-02-28T05:46:14;34.23;;;31.53;;
25111;SDS011;13092;51.996;4.458;2023-02-28T05:48:42;33.37;;;30.63;;
25111;SDS011;13092;51.996;4.458;2023-02-28T05:51:13;33.23;;;30.73;;
25111;SDS011;13092;51.996;4.458;2023-02-28T05:53:41;33.07;;;30.57;;
25111;SDS011;13092;51.996;4.458;2023-02-28T05:56:09;33.10;;;30.33;;
25111;SDS011;13092;51.996;4.458;2023-02-28T05:58:39;34.07;;;31.10;;
25111;SDS011;13092;51.996;4.458;2023-02-28T06:01:20;33.57;;;30.77;;
25111;SDS011;13092;51.996;4.458;2023-02-28T06:03:58;33.50;;;30.90;;
25111;SDS011;13092;51.996;4.458;2023-02-28T06:06:27;32.73;;;30.00;;
25111;SDS011;13092;51.996;4.458;2023-02-28T06:08:57;32.53;;;30.13;;
25111;SDS011;13092;51.996;4.458;2023-02-28T06:11:25;32.43;;;29.93;;
25111;SDS011;13092;51.996;4.458;2023-02-28T06:13:57;31.97;;;29.57;;
25111;SDS011;13092;51.996;4.458;2023-02-28T06:16:27;32.07;;;29.40;;
25111;SDS011;13092;51.996;4.458;2023-02-28T06:18:56;32.73;;;29.87;;
25111;SDS011;13092;51.996;4.458;2023-02-28T06:21:26;33.13;;;30.43;;
25111;SDS011;13092;51.996;4.458;2023-02-28T06:23:55;33.70;;;31.00;;
25111;SDS011;13092;51.996;4.458;2023-02-28T06:26:24;31.67;;;29.37;;
25111;SDS011;13092;51.996;4.458;2023-02-28T06:28:53;32.97;;;30.20;;
25111;SDS011;13092;51.996;4.458;2023-02-28T06:31:22;32.53;;;30.20;;
25111;SDS011;13092;51.996;4.458;2023-02-28T06:33:52;31.87;;;29.47;;
25111;SDS011;13092;51.996;4.458;2023-02-28T06:36:20;30.23;;;28.03;;
25111;SDS011;13092;51.996;4.458;2023-02-28T06:38:51;30.00;;;27.80;;
25111;SDS011;13092;51.996;4.458;2023-02-28T06:41:22;31.10;;;28.90;;
25111;SDS011;13092;51.996;4.458;2023-02-28T06:43:51;30.70;;;28.33;;
25111;SDS011;13092;51.996;4.458;2023-02-28T06:46:20;30.40;;;28.20;;
25111;SDS011;13092;51.996;4.458;2023-02-28T06:48:50;29.37;;;27.37;;
25111;SDS011;13092;51.996;4.458;2023-02-28T06:51:19;28.80;;;26.77;;
25111;SDS011;13092;51.996;4.458;2023-02-28T06:53:50;27.80;;;25.93;;
25111;SDS011;13092;51.996;4.458;2023-02-28T06:56:19;29.40;;;27.40;;
25111;SDS011;13092;51.996;4.458;2023-02-28T06:58:48;28.87;;;26.67;;
25111;SDS011;13092;51.996;4.458;2023-02-28T07:01:19;28.40;;;26.50;;
25111;SDS011;13092;51.996;4.458;2023-02-28T07:03:50;27.50;;;25.57;;
25111;SDS011;13092;51.996;4.458;2023-02-28T07:06:19;27.87;;;26.03;;
25111;SDS011;13092;51.996;4.458;2023-02-28T07:08:49;27.60;;;25.63;;
25111;SDS011;13092;51.996;4.458;2023-02-28T07:11:18;28.23;;;26.40;;
25111;SDS011;13092;51.996;4.458;2023-02-28T07:13:48;28.63;;;26.60;;
25111;SDS011;13092;51.996;4.458;2023-02-28T07:16:17;29.67;;;27.47;;
25111;SDS011;13092;51.996;4.458;2023-02-28T07:18:46;28.97;;;26.77;;
25111;SDS011;13092;51.996;4.458;2023-02-28T07:21:16;30.73;;;28.57;;
25111;SDS011;13092;51.996;4.458;2023-02-28T07:23:44;31.37;;;28.97;;
25111;SDS011;13092;51.996;4.458;2023-02-28T07:26:13;32.50;;;30.30;;
25111;SDS011;13092;51.996;4.458;2023-02-28T07:28:43;32.27;;;30.07;;
25111;SDS011;13092;51.996;4.458;2023-02-28T07:31:13;32.87;;;30.47;;
25111;SDS011;13092;51.996;4.458;2023-02-28T07:33:41;33.03;;;30.60;;
25111;SDS011;13092;51.996;4.458;2023-02-28T07:36:11;34.37;;;31.77;;
25111;SDS011;13092;51.996;4.458;2023-02-28T07:38:43;34.00;;;31.60;;
25111;SDS011;13092;51.996;4.458;2023-02-28T07:41:14;33.10;;;30.80;;
25111;SDS011;13092;51.996;4.458;2023-02-28T07:43:42;33.50;;;31.00;;
25111;SDS011;13092;51.996;4.458;2023-02-28T07:46:12;34.53;;;31.90;;
25111;SDS011;13092;51.996;4.458;2023-02-28T07:48:46;34.57;;;31.97;;
25111;SDS011;13092;51.996;4.458;2023-02-28T07:51:15;35.67;;;32.97;;
25111;SDS011;13092;51.996;4.458;2023-02-28T07:53:45;35.27;;;32.60;;
25111;SDS011;13092;51.996;4.458;2023-02-28T07:56:13;35.83;;;32.97;;
25111;SDS011;13092;51.996;4.458;2023-02-28T07:58:41;35.30;;;32.50;;
25111;SDS011;13092;51.996;4.458;2023-02-28T08:01:09;34.90;;;32.20;;
25111;SDS011;13092;51.996;4.458;2023-02-28T08:03:39;34.60;;;32.07;;
25111;SDS011;13092;51.996;4.458;2023-02-28T08:06:08;34.40;;;31.70;;
25111;SDS011;13092;51.996;4.458;2023-02-28T08:08:45;34.47;;;31.87;;
25111;SDS011;13092;51.996;4.458;2023-02-28T08:11:13;35.57;;;32.90;;
25111;SDS011;13092;51.996;4.458;2023-02-28T08:13:43;35.20;;;32.20;;
25111;SDS011;13092;51.996;4.458;2023-02-28T08:16:12;35.87;;;33.17;;
25111;SDS011;13092;51.996;4.458;2023-02-28T08:18:43;35.87;;;33.00;;
25111;SDS011;13092;51.996;4.458;2023-02-28T08:21:12;36.03;;;33.23;;
25111;SDS011;13092;51.996;4.458;2023-02-28T08:23:40;34.37;;;31.77;;
25111;SDS011;13092;51.996;4.458;2023-02-28T08:26:09;34.77;;;32.10;;
25111;SDS011;13092;51.996;4.458;2023-02-28T08:28:37;33.80;;;31.30;;
25111;SDS011;13092;51.996;4.458;2023-02-28T08:31:09;34.27;;;31.77;;
25111;SDS011;13092;51.996;4.458;2023-02-28T08:33:40;33.70;;;31.30;;
25111;SDS011;13092;51.996;4.458;2023-02-28T08:36:08;34.13;;;31.43;;
25111;SDS011;13092;51.996;4.458;2023-02-28T08:38:37;34.00;;;31.50;;
25111;SDS011;13092;51.996;4.458;2023-02-28T08:41:06;33.90;;;31.23;;
25111;SDS011;13092;51.996;4.458;2023-02-28T08:43:39;33.63;;;31.13;;
25111;SDS011;13092;51.996;4.458;2023-02-28T08:46:08;34.20;;;31.60;;
25111;SDS011;13092;51.996;4.458;2023-02-28T08:48:39;33.20;;;30.70;;
25111;SDS011;13092;51.996;4.458;2023-02-28T08:51:09;33.97;;;31.47;;
25111;SDS011;13092;51.996;4.458;2023-02-28T08:53:40;34.47;;;31.77;;
25111;SDS011;13092;51.996;4.458;2023-02-28T08:56:09;34.70;;;31.80;;
25111;SDS011;13092;51.996;4.458;2023-02-28T08:58:40;33.40;;;31.00;;
25111;SDS011;13092;51.996;4.458;2023-02-28T09:01:08;33.97;;;31.47;;
25111;SDS011;13092;51.996;4.458;2023-02-28T09:03:38;33.57;;;31.10;;
25111;SDS011;13092;51.996;4.458;2023-02-28T09:06:08;35.03;;;32.03;;
25111;SDS011;13092;51.996;4.458;2023-02-28T09:08:37;34.50;;;31.87;;
25111;SDS011;13092;51.996;4.458;2023-02-28T09:11:06;34.27;;;31.50;;
25111;SDS011;13092;51.996;4.458;2023-02-28T09:13:35;34.27;;;31.57;;
25111;SDS011;13092;51.996;4.458;2023-02-28T09:16:06;34.50;;;31.90;;
25111;SDS011;13092;51.996;4.458;2023-02-28T09:18:38;34.67;;;32.00;;
25111;SDS011;13092;51.996;4.458;2023-02-28T09:21:07;34.23;;;31.60;;
25111;SDS011;13092;51.996;4.458;2023-02-28T09:23:38;33.90;;;31.20;;
25111;SDS011;13092;51.996;4.458;2023-02-28T09:26:06;35.33;;;32.53;;
25111;SDS011;13092;51.996;4.458;2023-02-28T09:28:35;34.60;;;31.67;;
25111;SDS011;13092;51.996;4.458;2023-02-28T09:31:04;34.83;;;32.03;;
25111;SDS011;13092;51.996;4.458;2023-02-28T09:33:33;33.57;;;30.87;;
25111;SDS011;13092;51.996;4.458;2023-02-28T09:36:02;34.30;;;31.70;;
25111;SDS011;13092;51.996;4.458;2023-02-28T09:38:31;34.50;;;31.77;;
25111;SDS011;13092;51.996;4.458;2023-02-28T09:41:00;34.37;;;31.67;;
25111;SDS011;13092;51.996;4.458;2023-02-28T09:43:32;34.27;;;31.67;;
25111;SDS011;13092;51.996;4.458;2023-02-28T09:46:06;34.90;;;32.00;;
25111;SDS011;13092;51.996;4.458;2023-02-28T09:48:41;35.70;;;32.67;;
25111;SDS011;13092;51.996;4.458;2023-02-28T09:51:14;35.23;;;32.43;;
25111;SDS011;13092;51.996;4.458;2023-02-28T09:53:54;34.97;;;32.20;;
25111;SDS011;13092;51.996;4.458;2023-02-28T09:56:28;35.03;;;32.13;;
25111;SDS011;13092;51.996;4.458;2023-02-28T09:59:01;35.07;;;32.07;;
25111;SDS011;13092;51.996;4.458;2023-02-28T10:01:37;33.47;;;30.77;;
25111;SDS011;13092;51.996;4.458;2023-02-28T10:04:12;34.43;;;31.73;;
25111;SDS011;13092;51.996;4.458;2023-02-28T10:06:51;33.10;;;30.37;;
25111;SDS011;13092;51.996;4.458;2023-02-28T10:09:21;34.20;;;31.40;;
25111;SDS011;13092;51.996;4.458;2023-02-28T10:11:54;33.33;;;30.67;;
25111;SDS011;13092;51.996;4.458;2023-02-28T10:14:33;33.27;;;30.57;;
25111;SDS011;13092;51.996;4.458;2023-02-28T10:17:05;33.40;;;30.77;;
25111;SDS011;13092;51.996;4.458;2023-02-28T10:19:40;33.47;;;30.90;;
25111;SDS011;13092;51.996;4.458;2023-02-28T10:22:15;33.80;;;31.30;;
25111;SDS011;13092;51.996;4.458;2023-02-28T10:24:48;33.73;;;31.27;;
25111;SDS011;13092;51.996;4.458;2023-02-28T10:27:19;34.47;;;31.67;;
25111;SDS011;13092;51.996;4.458;2023-02-28T10:29:49;33.50;;;31.00;;
25111;SDS011;13092;51.996;4.458;2023-02-28T10:32:20;33.90;;;31.40;;
25111;SDS011;13092;51.996;4.458;2023-02-28T10:34:51;32.87;;;30.37;;
25111;SDS011;13092;51.996;4.458;2023-02-28T10:37:22;32.17;;;29.97;;
25111;SDS011;13092;51.996;4.458;2023-02-28T10:39:51;31.03;;;28.83;;
25111;SDS011;13092;51.996;4.458;2023-02-28T10:42:24;30.63;;;28.53;;
25111;SDS011;13092;51.996;4.458;2023-02-28T10:45:04;29.70;;;27.70;;
25111;SDS011;13092;51.996;4.458;2023-02-28T10:47:40;31.20;;;29.03;;
25111;SDS011;13092;51.996;4.458;2023-02-28T10:50:27;31.13;;;29.03;;
25111;SDS011;13092;51.996;4.458;2023-02-28T10:53:04;31.47;;;29.27;;
25111;SDS011;13092;51.996;4.458;2023-02-28T10:55:42;30.87;;;28.67;;
25111;SDS011;13092;51.996;4.458;2023-02-28T10:58:20;31.27;;;29.27;;
25111;SDS011;13092;51.996;4.458;2023-02-28T11:00:50;31.03;;;29.00;;
25111;SDS011;13092;51.996;4.458;2023-02-28T11:03:25;30.17;;;28.27;;
25111;SDS011;13092;51.996;4.458;2023-02-28T11:05:57;24.50;;;22.90;;
25111;SDS011;13092;51.996;4.458;2023-02-28T11:08:26;28.13;;;26.33;;
25111;SDS011;13092;51.996;4.458;2023-02-28T11:10:55;26.70;;;25.00;;
25111;SDS011;13092;51.996;4.458;2023-02-28T11:13:26;20.77;;;19.37;;
25111;SDS011;13092;51.996;4.458;2023-02-28T11:15:59;13.57;;;12.47;;
25111;SDS011;13092;51.996;4.458;2023-02-28T11:18:32;7.47;;;6.00;;
25111;SDS011;13092;51.996;4.458;2023-02-28T11:21:05;7.83;;;4.73;;
25111;SDS011;13092;51.996;4.458;2023-02-28T11:23:35;4.57;;;3.27;;
25111;SDS011;13092;51.996;4.458;2023-02-28T11:26:06;5.20;;;2.80;;
25111;SDS011;13092;51.996;4.458;2023-02-28T11:28:37;6.80;;;3.17;;
25111;SDS011;13092;51.996;4.458;2023-02-28T11:33:59;3.90;;;2.90;;
25111;SDS011;13092;51.996;4.458;2023-02-28T11:36:28;5.50;;;2.87;;
25111;SDS011;13092;51.996;4.458;2023-02-28T11:39:00;4.17;;;2.70;;
25111;SDS011;13092;51.996;4.458;2023-02-28T11:41:42;3.57;;;2.47;;
25111;SDS011;13092;51.996;4.458;2023-02-28T11:44:34;2.60;;;2.33;;
25111;SDS011;13092;51.996;4.458;2023-02-28T11:47:14;3.23;;;2.60;;
25111;SDS011;13092;51.996;4.458;2023-02-28T11:49:57;3.63;;;2.47;;
25111;SDS011;13092;51.996;4.458;2023-02-28T11:52:35;3.27;;;2.53;;
25111;SDS011;13092;51.996;4.458;2023-02-28T11:55:14;4.23;;;2.27;;
25111;SDS011;13092;51.996;4.458;2023-02-28T11:57:56;4.60;;;2.37;;
25111;SDS011;13092;51.996;4.458;2023-02-28T12:00:40;4.10;;;2.60;;
25111;SDS011;13092;51.996;4.458;2023-02-28T12:03:26;4.70;;;2.43;;
25111;SDS011;13092;51.996;4.458;2023-02-28T12:06:03;3.03;;;2.13;;
25111;SDS011;13092;51.996;4.458;2023-02-28T12:08:46;4.70;;;2.60;;
25111;SDS011;13092;51.996;4.458;2023-02-28T12:11:22;3.90;;;2.30;;
25111;SDS011;13092;51.996;4.458;2023-02-28T12:14:00;3.10;;;2.50;;
25111;SDS011;13092;51.996;4.458;2023-02-28T12:16:59;3.07;;;2.60;;
25111;SDS011;13092;51.996;4.458;2023-02-28T12:19:37;4.43;;;2.53;;
25111;SDS011;13092;51.996;4.458;2023-02-28T12:22:25;4.30;;;2.20;;
25111;SDS011;13092;51.996;4.458;2023-02-28T12:25:03;3.70;;;2.33;;
25111;SDS011;13092;51.996;4.458;2023-02-28T12:28:00;3.83;;;2.67;;
25111;SDS011;13092;51.996;4.458;2023-02-28T12:30:29;3.73;;;2.60;;
25111;SDS011;13092;51.996;4.458;2023-02-28T12:33:01;3.90;;;2.30;;
25111;SDS011;13092;51.996;4.458;2023-02-28T12:35:32;2.93;;;2.20;;
25111;SDS011;13092;51.996;4.458;2023-02-28T12:38:08;4.23;;;2.90;;
25111;SDS011;13092;51.996;4.458;2023-02-28T12:40:42;6.60;;;2.60;;
25111;SDS011;13092;51.996;4.458;2023-02-28T12:43:13;4.43;;;2.50;;
25111;SDS011;13092;51.996;4.458;2023-02-28T12:45:44;4.77;;;2.60;;
25111;SDS011;13092;51.996;4.458;2023-02-28T12:48:18;3.23;;;2.50;;
25111;SDS011;13092;51.996;4.458;2023-02-28T12:50:51;2.90;;;2.30;;
25111;SDS011;13092;51.996;4.458;2023-02-28T12:53:23;4.40;;;2.90;;
25111;SDS011;13092;51.996;4.458;2023-02-28T12:56:02;6.83;;;3.70;;
25111;SDS011;13092;51.996;4.458;2023-02-28T12:58:41;4.50;;;2.80;;
25111;SDS011;13092;51.996;4.458;2023-02-28T13:10:23;2.40;;;2.10;;
25111;SDS011;13092;51.996;4.458;2023-02-28T13:12:53;3.63;;;2.37;;
25111;SDS011;13092;51.996;4.458;2023-02-28T13:15:24;2.50;;;2.20;;
25111;SDS011;13092;51.996;4.458;2023-02-28T13:17:56;2.30;;;2.03;;
25111;SDS011;13092;51.996;4.458;2023-02-28T13:20:33;3.73;;;2.30;;
25111;SDS011;13092;51.996;4.458;2023-02-28T13:23:03;3.57;;;2.30;;
25111;SDS011;13092;51.996;4.458;2023-02-28T13:25:58;5.60;;;2.77;;
25111;SDS011;13092;51.996;4.458;2023-02-28T13:31:31;3.30;;;2.30;;
25111;SDS011;13092;51.996;4.458;2023-02-28T13:34:16;2.80;;;2.13;;
25111;SDS011;13092;51.996;4.458;2023-02-28T13:36:44;3.30;;;2.50;;
25111;SDS011;13092;51.996;4.458;2023-02-28T13:42:31;5.10;;;2.30;;
25111;SDS011;13092;51.996;4.458;2023-02-28T13:45:23;2.70;;;2.00;;
25111;SDS011;13092;51.996;4.458;2023-02-28T13:47:53;6.10;;;2.70;;
25111;SDS011;13092;51.996;4.458;2023-02-28T13:50:26;7.07;;;2.30;;
25111;SDS011;13092;51.996;4.458;2023-02-28T13:53:05;5.30;;;2.50;;
25111;SDS011;13092;51.996;4.458;2023-02-28T13:56:03;2.37;;;2.17;;
25111;SDS011;13092;51.996;4.458;2023-02-28T13:58:41;5.50;;;2.73;;
25111;SDS011;13092;51.996;4.458;2023-02-28T14:01:21;4.10;;;2.60;;
25111;SDS011;13092;51.996;4.458;2023-02-28T14:04:04;4.07;;;2.37;;
25111;SDS011;13092;51.996;4.458;2023-02-28T14:06:49;3.43;;;2.33;;
25111;SDS011;13092;51.996;4.458;2023-02-28T14:09:21;4.60;;;2.40;;
25111;SDS011;13092;51.996;4.458;2023-02-28T14:11:54;2.90;;;2.40;;
25111;SDS011;13092;51.996;4.458;2023-02-28T14:17:26;4.40;;;2.50;;
25111;SDS011;13092;51.996;4.458;2023-02-28T14:19:54;4.73;;;2.63;;
25111;SDS011;13092;51.996;4.458;2023-02-28T14:22:43;4.03;;;2.50;;
25111;SDS011;13092;51.996;4.458;2023-02-28T14:25:22;5.57;;;2.80;;
25111;SDS011;13092;51.996;4.458;2023-02-28T14:28:03;3.23;;;2.50;;
25111;SDS011;13092;51.996;4.458;2023-02-28T14:30:51;4.80;;;2.77;;
25111;SDS011;13092;51.996;4.458;2023-02-28T14:33:27;4.53;;;2.90;;
25111;SDS011;13092;51.996;4.458;2023-02-28T14:36:11;3.83;;;2.63;;
25111;SDS011;13092;51.996;4.458;2023-02-28T14:38:45;4.37;;;2.70;;
25111;SDS011;13092;51.996;4.458;2023-02-28T14:41:16;3.67;;;2.87;;
25111;SDS011;13092;51.996;4.458;2023-02-28T14:43:49;4.23;;;2.80;;
25111;SDS011;13092;51.996;4.458;2023-02-28T14:46:19;3.80;;;2.43;;
25111;SDS011;13092;51.996;4.458;2023-02-28T14:48:49;4.77;;;2.73;;
25111;SDS011;13092;51.996;4.458;2023-02-28T14:51:18;3.90;;;2.50;;
25111;SDS011;13092;51.996;4.458;2023-02-28T14:53:49;3.40;;;2.20;;
25111;SDS011;13092;51.996;4.458;2023-02-28T14:56:23;7.93;;;2.80;;
25111;SDS011;13092;51.996;4.458;2023-02-28T14:58:54;2.93;;;2.30;;
25111;SDS011;13092;51.996;4.458;2023-02-28T15:01:23;4.13;;;2.60;;
25111;SDS011;13092;51.996;4.458;2023-02-28T15:04:00;3.93;;;2.30;;
25111;SDS011;13092;51.996;4.458;2023-02-28T15:06:30;3.30;;;2.20;;
25111;SDS011;13092;51.996;4.458;2023-02-28T15:09:14;3.73;;;2.27;;
25111;SDS011;13092;51.996;4.458;2023-02-28T15:11:45;4.33;;;2.20;;
25111;SDS011;13092;51.996;4.458;2023-02-28T15:14:19;5.00;;;2.30;;
25111;SDS011;13092;51.996;4.458;2023-02-28T15:16:50;3.33;;;2.23;;
25111;SDS011;13092;51.996;4.458;2023-02-28T15:19:25;6.07;;;2.20;;
25111;SDS011;13092;51.996;4.458;2023-02-28T15:21:56;4.13;;;2.43;;
25111;SDS011;13092;51.996;4.458;2023-02-28T15:24:30;4.27;;;2.20;;
25111;SDS011;13092;51.996;4.458;2023-02-28T15:27:04;4.23;;;2.40;;
25111;SDS011;13092;51.996;4.458;2023-02-28T15:29:42;3.37;;;2.40;;
25111;SDS011;13092;51.996;4.458;2023-02-28T15:32:21;4.13;;;2.30;;
25111;SDS011;13092;51.996;4.458;2023-02-28T15:34:54;4.97;;;2.30;;